Time;durP1;ratioP1;P1;durP2;ratioP2;P2;SDS_P1;SDS_P2;PMS_P1;PMS_P2;Temp;Humidity;BMP_temperature;BMP_pressure;BME280_temperature;BME280_humidity;BME280_pressure;Samples;Min_cycle;Max_cycle;Signal;HPM_P1;HPM_P2
2022/03/13 00:00:53;;;;;;;13.97;9.07;;;-3274.50;50.50;;;;;;6256735;28;20215;-61
2022/03/13 00:03:55;;;;;;;18.10;11.77;;;-3274.50;50.90;;;;;;6277206;28;20278;-61
2022/03/13 00:06:56;;;;;;;18.33;10.93;;;-3274.40;51.10;;;;;;6273048;28;20209;-61
2022/03/13 00:09:57;;;;;;;17.90;10.97;;;-3274.40;50.80;;;;;;6256922;28;20199;-61
2022/03/13 00:12:58;;;;;;;14.67;9.57;;;-3274.50;51.10;;;;;;6264316;28;20213;-60
2022/03/13 00:16:08;;;;;;;12.83;9.10;;;-3274.40;50.30;;;;;;6314399;28;20263;-60
2022/03/13 00:19:11;;;;;;;12.23;9.10;;;-3274.30;49.80;;;;;;6298199;28;20178;-60
2022/03/13 00:22:12;;;;;;;13.93;9.60;;;-3274.30;50.30;;;;;;6267280;28;20226;-60
2022/03/13 00:25:14;;;;;;;13.43;8.47;;;-3274.30;50.80;;;;;;6264972;28;20284;-60
2022/03/13 00:28:15;;;;;;;13.43;8.03;;;-3274.20;50.70;;;;;;6275234;28;20294;-61
2022/03/13 00:31:16;;;;;;;13.43;8.13;;;-3274.20;51.00;;;;;;6306398;28;20193;-60
2022/03/13 00:34:16;;;;;;;14.53;9.07;;;-3274.20;51.30;;;;;;6264799;28;20194;-60
2022/03/13 00:37:17;;;;;;;14.00;8.67;;;-3274.10;51.90;;;;;;6250823;28;20586;-60
2022/03/13 00:40:18;;;;;;;12.40;8.13;;;-3274.00;52.00;;;;;;6297906;28;20203;-60
2022/03/13 00:43:20;;;;;;;13.13;8.90;;;-3274.00;52.30;;;;;;6280906;28;20201;-61
2022/03/13 00:46:21;;;;;;;11.80;7.93;;;-3274.00;52.40;;;;;;6276236;28;20194;-61
2022/03/13 00:49:22;;;;;;;12.67;8.30;;;-3274.00;52.50;;;;;;6256465;28;20308;-60
2022/03/13 00:52:23;;;;;;;13.27;8.73;;;-3274.00;52.20;;;;;;6272928;28;20214;-60
2022/03/13 00:55:24;;;;;;;14.70;8.93;;;-3273.90;52.50;;;;;;6271570;28;20263;-60
2022/03/13 00:58:24;;;;;;;13.37;8.40;;;-3273.90;52.60;;;;;;6265217;28;20225;-60
2022/03/13 01:01:27;;;;;;;14.63;8.80;;;-3273.90;52.70;;;;;;6269977;28;20186;-60
2022/03/13 01:04:28;;;;;;;14.30;8.13;;;-3273.90;52.40;;;;;;6259078;28;20198;-60
2022/03/13 01:07:29;;;;;;;10.63;8.00;;;-3273.90;51.40;;;;;;6261007;28;20269;-60
2022/03/13 01:10:30;;;;;;;17.37;8.10;;;-3273.90;51.30;;;;;;6276684;28;20194;-60
2022/03/13 01:13:31;;;;;;;11.40;8.07;;;-3273.90;51.60;;;;;;6260850;28;20180;-61
2022/03/13 01:16:38;;;;;;;14.53;8.03;;;-3273.90;51.30;;;;;;6285305;28;20222;-60
2022/03/13 01:19:39;;;;;;;12.80;8.43;;;-3273.90;51.30;;;;;;6277226;28;20183;-60
2022/03/13 01:22:39;;;;;;;11.63;7.77;;;-3273.80;51.40;;;;;;6261021;28;20217;-60
2022/03/13 01:25:40;;;;;;;13.83;8.80;;;-3273.80;51.40;;;;;;6273002;28;20225;-61
2022/03/13 01:28:41;;;;;;;13.00;8.27;;;-3273.80;51.50;;;;;;6285451;28;20179;-60
2022/03/13 01:31:47;;;;;;;15.33;8.60;;;-3273.70;51.70;;;;;;6268898;28;20196;-60
2022/03/13 01:34:50;;;;;;;13.30;8.93;;;-3273.70;51.90;;;;;;6276614;28;20186;-60
2022/03/13 01:37:52;;;;;;;14.00;8.70;;;-3273.70;52.20;;;;;;6282935;28;20210;-60
2022/03/13 01:40:53;;;;;;;14.73;9.30;;;-3273.70;52.30;;;;;;6284195;28;20239;-61
2022/03/13 01:43:57;;;;;;;11.97;7.73;;;-3273.60;52.40;;;;;;6265980;28;20197;-61
2022/03/13 01:47:01;;;;;;;14.30;8.30;;;-3273.60;52.10;;;;;;6284909;28;20241;-61
2022/03/13 01:50:02;;;;;;;12.93;8.07;;;-3273.60;52.40;;;;;;6266180;28;20224;-61
2022/03/13 01:53:03;;;;;;;12.30;7.13;;;-3273.50;53.40;;;;;;6260238;28;20216;-61
2022/03/13 01:56:06;;;;;;;13.13;8.57;;;-3273.40;53.70;;;;;;6298660;28;20218;-61
2022/03/13 01:59:09;;;;;;;13.17;8.87;;;-3273.40;54.00;;;;;;6251911;28;20217;-61
2022/03/13 02:02:12;;;;;;;11.90;7.60;;;-3273.30;54.20;;;;;;6301631;28;20186;-61
2022/03/13 02:05:35;;;;;;;13.87;8.93;;;-3273.20;54.30;;;;;;6262771;28;20250;-61
2022/03/13 02:08:37;;;;;;;16.90;9.17;;;-3273.20;54.70;;;;;;6260115;28;20215;-61
2022/03/13 02:11:40;;;;;;;13.77;8.30;;;-3273.20;54.90;;;;;;6259349;28;20195;-61
2022/03/13 02:14:41;;;;;;;14.57;8.47;;;-3273.20;55.00;;;;;;6255054;28;20207;-61
2022/03/13 02:17:42;;;;;;;12.83;8.67;;;-3273.20;54.80;;;;;;6267768;28;20248;-61
2022/03/13 02:20:46;;;;;;;13.03;8.17;;;-3273.20;55.10;;;;;;6267034;28;20192;-61
2022/03/13 02:23:47;;;;;;;14.63;7.67;;;-3273.20;55.30;;;;;;6284185;28;20189;-60
2022/03/13 02:27:01;;;;;;;12.00;8.33;;;-3273.10;55.40;;;;;;6269214;28;20263;-60
2022/03/13 02:30:03;;;;;;;13.77;8.77;;;-3273.10;55.60;;;;;;6284459;28;20258;-60
2022/03/13 02:33:03;;;;;;;11.43;8.00;;;-3273.10;55.70;;;;;;6265049;28;20210;-60
2022/03/13 02:36:12;;;;;;;13.97;8.73;;;-3273.00;55.80;;;;;;6283563;28;20221;-60
2022/03/13 02:39:12;;;;;;;15.70;8.73;;;-3273.00;55.70;;;;;;6283679;28;20273;-60
2022/03/13 02:42:13;;;;;;;13.70;8.27;;;-3273.00;55.50;;;;;;6278398;28;20199;-60
2022/03/13 02:45:32;;;;;;;14.50;8.63;;;-3273.00;55.40;;;;;;6279012;28;20690;-60
2022/03/13 02:48:33;;;;;;;14.07;8.10;;;-3272.90;55.80;;;;;;6283873;28;20187;-60
2022/03/13 02:51:34;;;;;;;13.33;8.77;;;-3272.90;55.50;;;;;;6267194;28;20267;-60
2022/03/13 02:54:35;;;;;;;12.37;7.47;;;-3272.90;55.40;;;;;;6265818;28;20196;-60
2022/03/13 02:57:36;;;;;;;11.60;7.67;;;-3272.90;55.40;;;;;;6250867;28;20229;-60
2022/03/13 03:00:48;;;;;;;14.23;8.50;;;-3272.80;55.60;;;;;;6245430;28;20214;-60
2022/03/13 03:03:52;;;;;;;12.00;8.27;;;-3272.80;56.10;;;;;;6275228;28;20198;-60
2022/03/13 03:07:01;;;;;;;12.77;8.23;;;-3272.80;56.30;;;;;;6258180;28;20225;-60
2022/03/13 03:10:04;;;;;;;14.37;8.37;;;-3272.80;56.70;;;;;;6258086;28;20267;-60
2022/03/13 03:13:05;;;;;;;13.80;7.97;;;-3272.70;56.50;;;;;;6262743;28;20190;-60
2022/03/13 03:16:07;;;;;;;12.67;7.60;;;-3272.70;56.50;;;;;;6292882;28;20224;-60
2022/03/13 03:19:08;;;;;;;15.67;8.63;;;-3272.70;56.80;;;;;;6266274;28;20200;-60
2022/03/13 03:22:09;;;;;;;10.17;7.17;;;-3272.70;57.20;;;;;;6262409;28;20204;-60
2022/03/13 03:25:10;;;;;;;11.23;8.07;;;-3272.70;57.10;;;;;;6257774;28;20250;-60
2022/03/13 03:28:16;;;;;;;16.40;8.07;;;-3272.70;57.20;;;;;;6257693;28;20210;-60
2022/03/13 03:31:17;;;;;;;11.27;7.77;;;-3272.70;57.30;;;;;;6262033;28;20187;-60
2022/03/13 03:34:21;;;;;;;11.97;8.17;;;-3272.70;57.30;;;;;;6278871;28;20251;-60
2022/03/13 03:37:21;;;;;;;13.70;8.17;;;-3272.60;57.50;;;;;;6316030;28;20206;-60
2022/03/13 03:40:28;;;;;;;12.70;7.93;;;-3272.70;57.50;;;;;;6281107;28;20265;-60
2022/03/13 03:43:28;;;;;;;12.17;8.17;;;-3272.70;57.40;;;;;;6281828;28;20199;-60
2022/03/13 03:46:29;;;;;;;10.43;7.47;;;-3272.70;57.10;;;;;;6265944;28;20191;-60
2022/03/13 03:49:30;;;;;;;12.97;7.83;;;-3272.60;56.60;;;;;;6281095;28;20275;-60
2022/03/13 03:52:31;;;;;;;13.33;8.57;;;-3272.50;56.40;;;;;;6265553;28;20188;-60
2022/03/13 03:55:32;;;;;;;12.63;8.37;;;-3272.50;57.20;;;;;;6256928;28;20202;-60
2022/03/13 03:58:32;;;;;;;13.03;8.33;;;-3272.60;57.60;;;;;;6265140;28;20565;-60
2022/03/13 04:01:42;;;;;;;12.33;8.40;;;-3272.50;57.60;;;;;;6285642;28;20192;-60
2022/03/13 04:04:43;;;;;;;13.60;7.67;;;-3272.50;57.90;;;;;;6298459;28;20174;-60
2022/03/13 04:07:44;;;;;;;14.40;9.13;;;-3272.50;57.80;;;;;;6281497;28;20201;-60
2022/03/13 04:10:45;;;;;;;13.07;8.00;;;-3272.50;57.80;;;;;;6265160;28;20186;-61
2022/03/13 04:13:47;;;;;;;15.43;7.60;;;-3272.50;57.50;;;;;;6280474;28;20201;-61
2022/03/13 04:16:52;;;;;;;11.53;7.47;;;-3272.50;56.70;;;;;;6279370;28;20228;-61
2022/03/13 04:19:53;;;;;;;10.97;7.40;;;-3272.50;56.30;;;;;;6262541;28;20182;-61
2022/03/13 04:22:54;;;;;;;13.47;8.30;;;-3272.50;56.60;;;;;;6273466;28;20199;-61
2022/03/13 04:25:55;;;;;;;12.43;8.47;;;-3272.50;57.00;;;;;;6261386;28;20238;-61
2022/03/13 04:28:55;;;;;;;13.53;9.87;;;-3272.40;57.00;;;;;;6264791;28;20204;-61
2022/03/13 04:31:57;;;;;;;13.03;7.90;;;-3272.40;57.20;;;;;;6268579;28;20331;-61
2022/03/13 04:34:58;;;;;;;16.30;9.13;;;-3272.30;57.60;;;;;;6281152;28;20201;-61
2022/03/13 04:37:59;;;;;;;14.17;9.00;;;-3272.40;57.80;;;;;;6281129;28;20216;-61
2022/03/13 04:41:00;;;;;;;13.57;8.53;;;-3272.30;57.80;;;;;;6298145;28;20272;-61
2022/03/13 04:44:01;;;;;;;16.27;8.00;;;-3272.30;57.40;;;;;;6280348;28;20193;-61
2022/03/13 04:47:02;;;;;;;12.43;7.93;;;-3272.30;57.20;;;;;;6278522;28;20217;-61
2022/03/13 04:50:03;;;;;;;12.97;8.73;;;-3272.30;56.90;;;;;;6264871;28;20186;-61
2022/03/13 04:53:04;;;;;;;11.87;7.03;;;-3272.30;57.20;;;;;;6264946;28;20262;-61
2022/03/13 04:56:05;;;;;;;13.73;8.30;;;-3272.30;57.50;;;;;;6288149;28;20217;-61
2022/03/13 04:59:07;;;;;;;13.27;7.90;;;-3272.20;57.70;;;;;;6318462;28;20185;-61
2022/03/13 05:02:08;;;;;;;15.03;8.63;;;-3272.20;57.80;;;;;;6317402;28;20615;-61
2022/03/13 05:05:09;;;;;;;12.87;8.47;;;-3272.10;58.00;;;;;;6301584;28;20204;-61
2022/03/13 05:08:13;;;;;;;12.37;7.87;;;-3272.20;57.90;;;;;;6305436;28;20211;-61
2022/03/13 05:11:15;;;;;;;10.27;7.83;;;-3272.20;57.90;;;;;;6292300;28;20672;-61
2022/03/13 05:14:16;;;;;;;12.53;7.93;;;-3272.20;57.90;;;;;;6305406;28;20296;-61
2022/03/13 05:17:16;;;;;;;13.43;8.43;;;-3272.10;58.30;;;;;;6305320;28;20229;-61
2022/03/13 05:20:18;;;;;;;15.93;8.03;;;-3272.20;58.40;;;;;;6302198;28;20201;-61
2022/03/13 05:23:18;;;;;;;14.77;8.77;;;-3272.10;58.20;;;;;;6301819;28;20246;-61
2022/03/13 05:26:19;;;;;;;14.13;8.13;;;-3272.20;58.00;;;;;;6298326;28;20260;-61
2022/03/13 05:29:20;;;;;;;14.27;8.37;;;-3272.10;57.90;;;;;;6296477;28;20193;-61
2022/03/13 05:32:21;;;;;;;11.77;7.37;;;-3272.10;58.20;;;;;;6301664;28;20197;-61
2022/03/13 05:35:23;;;;;;;13.20;7.73;;;-3272.10;58.40;;;;;;6298875;28;20203;-61
2022/03/13 05:38:24;;;;;;;12.10;8.27;;;-3272.10;58.50;;;;;;6298911;28;20223;-61
2022/03/13 05:41:25;;;;;;;12.30;8.07;;;-3272.10;58.60;;;;;;6304526;28;20616;-61
2022/03/13 05:44:26;;;;;;;13.57;8.57;;;-3272.20;58.50;;;;;;6304600;28;20197;-61
2022/03/13 05:47:27;;;;;;;14.97;7.77;;;-3272.10;58.70;;;;;;6325432;28;20184;-61
2022/03/13 05:50:30;;;;;;;11.00;7.80;;;-3272.10;59.00;;;;;;6297438;28;20620;-61
2022/03/13 05:53:30;;;;;;;14.50;8.83;;;-3272.10;59.20;;;;;;6300953;28;20196;-61
2022/03/13 05:56:31;;;;;;;12.07;6.90;;;-3272.10;59.50;;;;;;6296608;28;20208;-61
2022/03/13 05:59:35;;;;;;;17.97;8.70;;;-3272.10;59.60;;;;;;6308190;28;20231;-60
2022/03/13 06:02:40;;;;;;;12.20;7.73;;;-3272.20;59.80;;;;;;6301445;28;20196;-61
2022/03/13 06:05:41;;;;;;;11.73;7.50;;;-3272.20;59.70;;;;;;6326706;28;20677;-63
2022/03/13 06:08:42;;;;;;;10.57;8.27;;;-3272.20;59.90;;;;;;6307108;28;20646;-63
2022/03/13 06:11:43;;;;;;;14.50;7.67;;;-3272.30;60.00;;;;;;6308304;28;20202;-63
2022/03/13 06:14:44;;;;;;;14.23;8.70;;;-3272.30;59.60;;;;;;6296848;28;20289;-64
2022/03/13 06:17:47;;;;;;;12.57;8.07;;;-3272.30;59.60;;;;;;6301290;28;20220;-63
2022/03/13 06:20:48;;;;;;;9.87;7.70;;;-3272.40;59.60;;;;;;6300198;28;20236;-62
2022/03/13 06:23:48;;;;;;;15.03;8.73;;;-3272.40;59.50;;;;;;6282742;28;20220;-61
2022/03/13 06:26:49;;;;;;;11.37;7.87;;;-3272.50;59.50;;;;;;6303701;28;20237;-65
2022/03/13 06:29:50;;;;;;;12.27;7.83;;;-3272.60;59.40;;;;;;6300309;28;20259;-64
2022/03/13 06:32:52;;;;;;;12.37;8.03;;;-3272.60;59.30;;;;;;6305171;28;20193;-64
2022/03/13 06:35:53;;;;;;;13.53;8.30;;;-3272.70;59.20;;;;;;6324064;28;20259;-64
2022/03/13 06:38:55;;;;;;;11.87;8.30;;;-3272.70;58.90;;;;;;6298065;28;20198;-64
2022/03/13 06:41:58;;;;;;;10.90;7.90;;;-3272.70;58.70;;;;;;6274816;28;20209;-64
2022/03/13 06:44:59;;;;;;;14.00;9.43;;;-3272.80;58.60;;;;;;6299288;28;20191;-64
2022/03/13 06:48:00;;;;;;;11.73;8.67;;;-3272.80;58.70;;;;;;6311626;28;20238;-64
2022/03/13 06:51:01;;;;;;;14.23;8.20;;;-3272.90;58.40;;;;;;6304319;28;20225;-63
2022/03/13 06:54:03;;;;;;;16.23;9.03;;;-3272.90;58.00;;;;;;6302135;28;20187;-63
2022/03/13 06:57:04;;;;;;;14.47;8.57;;;-3273.00;57.90;;;;;;6301643;28;20223;-64
2022/03/13 07:00:06;;;;;;;14.27;7.80;;;-3273.20;57.50;;;;;;6300332;28;20288;-63
2022/03/13 07:03:07;;;;;;;13.50;8.63;;;-3273.20;57.20;;;;;;6321391;28;20275;-63
2022/03/13 07:06:08;;;;;;;14.80;9.07;;;-3273.30;56.90;;;;;;6301533;28;20200;-63
2022/03/13 07:09:10;;;;;;;12.10;7.83;;;-3273.40;56.40;;;;;;6304518;28;20197;-64
2022/03/13 07:12:11;;;;;;;13.10;8.77;;;-3273.50;56.00;;;;;;6307319;28;20198;-63
2022/03/13 07:15:13;;;;;;;20.10;9.73;;;-3273.50;55.60;;;;;;6291686;28;20194;-64
2022/03/13 07:18:14;;;;;;;13.70;8.70;;;-3273.70;55.20;;;;;;6280274;28;20235;-64
2022/03/13 07:21:16;;;;;;;13.33;8.83;;;-3273.70;54.70;;;;;;6307154;28;20211;-62
2022/03/13 07:24:19;;;;;;;12.77;8.77;;;-3273.90;54.30;;;;;;6302181;28;20229;-62
2022/03/13 07:27:20;;;;;;;14.60;8.27;;;-3274.00;53.50;;;;;;6307757;28;20196;-62
2022/03/13 07:30:21;;;;;;;14.70;9.20;;;-3274.20;53.00;;;;;;6313243;28;20203;-62
2022/03/13 07:33:21;;;;;;;21.00;11.67;;;-3274.30;52.60;;;;;;6295976;28;20202;-62
2022/03/13 07:36:23;;;;;;;17.07;9.97;;;-3274.40;52.10;;;;;;6297763;28;20215;-61
2022/03/13 07:39:24;;;;;;;12.83;9.60;;;-3274.60;52.00;;;;;;6272210;28;20199;-61
2022/03/13 07:42:25;;;;;;;11.57;8.27;;;-3274.70;51.70;;;;;;6288533;28;20290;-60
2022/03/13 07:45:26;;;;;;;17.00;9.67;;;-3274.90;51.70;;;;;;6302592;28;20280;-61
2022/03/13 07:48:29;;;;;;;16.40;9.73;;;-3275.00;51.20;;;;;;6308021;28;20194;-61
2022/03/13 07:51:32;;;;;;;14.33;8.77;;;-3275.10;51.10;;;;;;6291752;28;20204;-61
2022/03/13 07:54:33;;;;;;;15.57;8.67;;;-3275.20;50.80;;;;;;6288901;28;20203;-60
2022/03/13 07:57:34;;;;;;;18.17;8.93;;;-3275.30;50.50;;;;;;6285163;28;20219;-61
2022/03/13 08:00:35;;;;;;;16.17;9.60;;;-3275.50;49.90;;;;;;6321869;28;20192;-61
2022/03/13 08:03:36;;;;;;;15.40;9.30;;;-3275.60;49.60;;;;;;6283923;28;20210;-61
2022/03/13 08:06:39;;;;;;;17.03;9.67;;;-3275.70;49.50;;;;;;6287836;28;20633;-60
2022/03/13 08:09:40;;;;;;;13.70;9.93;;;-3275.80;48.40;;;;;;6249011;28;20204;-61
2022/03/13 08:12:41;;;;;;;15.73;9.00;;;-3275.90;47.10;;;;;;6291810;28;20204;-62
2022/03/13 08:15:41;;;;;;;11.87;8.67;;;-3276.10;46.00;;;;;;6293680;28;20196;-60
2022/03/13 08:18:42;;;;;;;10.10;7.40;;;-3276.30;44.70;;;;;;6298669;28;20224;-59
2022/03/13 08:21:43;;;;;;;13.13;8.37;;;-3276.40;45.00;;;;;;6269444;28;20227;-63
2022/03/13 08:24:44;;;;;;;12.73;8.87;;;-3276.50;44.20;;;;;;6285905;28;20231;-63
2022/03/13 08:27:46;;;;;;;11.53;8.10;;;-3276.70;43.60;;;;;;6294108;28;20203;-63
2022/03/13 08:30:48;;;;;;;14.33;8.83;;;0.10;42.50;;;;;;6295031;28;20204;-62
2022/03/13 08:33:50;;;;;;;11.93;8.33;;;0.30;41.90;;;;;;6256495;28;20199;-63
2022/03/13 08:36:53;;;;;;;13.97;9.13;;;0.40;41.20;;;;;;6302781;28;20220;-63
2022/03/13 08:39:54;;;;;;;13.03;8.37;;;0.60;41.30;;;;;;6288471;28;20254;-63
2022/03/13 08:42:56;;;;;;;13.83;8.37;;;0.70;39.70;;;;;;6317276;28;20196;-64
2022/03/13 08:45:57;;;;;;;12.33;8.00;;;0.90;39.40;;;;;;6291160;28;20276;-62
2022/03/13 08:48:58;;;;;;;12.00;8.43;;;1.00;39.20;;;;;;6261250;28;20219;-63
2022/03/13 08:51:59;;;;;;;12.83;9.53;;;1.30;38.50;;;;;;6272454;28;20195;-65
2022/03/13 08:55:00;;;;;;;11.60;8.73;;;1.80;36.90;;;;;;6295156;28;20302;-63
2022/03/13 08:58:01;;;;;;;12.77;8.43;;;1.80;37.10;;;;;;6321454;28;20224;-63
2022/03/13 09:01:01;;;;;;;14.03;8.77;;;1.90;37.60;;;;;;6296916;28;20272;-62
2022/03/13 09:04:03;;;;;;;12.80;9.23;;;1.90;37.70;;;;;;6271362;28;20204;-62
2022/03/13 09:07:04;;;;;;;13.57;9.17;;;2.30;36.40;;;;;;6289807;28;20277;-62
2022/03/13 09:10:07;;;;;;;12.87;9.47;;;2.40;35.90;;;;;;6284293;28;20196;-66
2022/03/13 09:13:08;;;;;;;14.57;9.17;;;2.50;35.90;;;;;;6321217;28;20197;-64
2022/03/13 09:16:09;;;;;;;12.43;9.40;;;2.70;36.60;;;;;;6302695;28;20249;-63
2022/03/13 09:19:10;;;;;;;12.57;9.43;;;2.90;36.50;;;;;;6289816;28;20468;-64
2022/03/13 09:22:14;;;;;;;14.83;9.67;;;3.10;35.20;;;;;;6285262;28;20192;-64
2022/03/13 09:25:15;;;;;;;15.00;9.17;;;3.10;35.00;;;;;;6318072;28;20290;-64
2022/03/13 09:28:16;;;;;;;13.83;9.47;;;3.30;34.80;;;;;;6287846;28;20232;-64
2022/03/13 09:31:16;;;;;;;13.90;9.93;;;3.60;34.20;;;;;;6299319;28;20192;-64
2022/03/13 09:34:17;;;;;;;14.63;9.93;;;3.60;34.40;;;;;;6312810;28;20193;-64
2022/03/13 09:37:18;;;;;;;14.13;10.03;;;3.60;33.90;;;;;;6298949;28;20217;-64
2022/03/13 09:40:19;;;;;;;14.63;9.90;;;3.80;34.30;;;;;;6285067;28;20193;-64
2022/03/13 09:43:20;;;;;;;13.90;10.10;;;3.80;34.80;;;;;;6301765;28;20216;-64
2022/03/13 09:46:21;;;;;;;15.87;10.43;;;3.90;34.40;;;;;;6284898;28;20203;-64
2022/03/13 09:49:23;;;;;;;15.50;10.57;;;4.00;35.50;;;;;;6301752;28;20277;-64
2022/03/13 09:52:24;;;;;;;13.67;9.97;;;4.10;34.10;;;;;;6288574;28;20203;-64
2022/03/13 09:55:26;;;;;;;13.13;9.40;;;4.00;34.20;;;;;;6308189;28;20654;-64
2022/03/13 09:58:29;;;;;;;15.80;9.83;;;4.30;33.90;;;;;;6290120;28;20223;-63
2022/03/13 10:01:29;;;;;;;15.10;11.10;;;4.40;34.00;;;;;;6335711;28;20256;-63
2022/03/13 10:04:31;;;;;;;16.50;10.93;;;4.50;33.00;;;;;;6299230;28;20215;-64
2022/03/13 10:08:02;;;;;;;17.50;10.53;;;4.60;33.10;;;;;;6286354;28;20280;-64
2022/03/13 10:11:03;;;;;;;18.13;10.93;;;4.70;33.10;;;;;;6316430;28;20291;-64
2022/03/13 10:14:08;;;;;;;13.43;9.73;;;4.80;32.50;;;;;;6288730;28;20200;-64
2022/03/13 10:17:26;;;;;;;12.27;9.80;;;5.00;32.50;;;;;;6249645;28;20213;-64
2022/03/13 10:20:27;;;;;;;14.33;9.30;;;5.00;32.50;;;;;;6302196;28;20198;-64
2022/03/13 10:23:30;;;;;;;15.07;11.20;;;5.10;33.10;;;;;;6264934;28;20210;-64
2022/03/13 10:26:31;;;;;;;16.63;9.70;;;5.10;32.70;;;;;;6299826;28;20231;-64
2022/03/13 10:29:34;;;;;;;18.23;10.13;;;5.20;32.00;;;;;;6305201;28;20220;-64
2022/03/13 10:32:38;;;;;;;16.07;11.57;;;5.60;31.70;;;;;;6282645;28;20200;-63
2022/03/13 10:35:39;;;;;;;16.23;11.37;;;5.70;33.20;;;;;;6293720;28;20218;-64
2022/03/13 10:38:42;;;;;;;13.53;10.10;;;5.90;34.10;;;;;;6302143;28;20237;-65
2022/03/13 10:41:44;;;;;;;15.23;10.37;;;5.90;32.20;;;;;;6323384;28;20199;-64
2022/03/13 10:44:52;;;;;;;16.97;10.73;;;6.10;31.10;;;;;;6293446;28;20196;-65
2022/03/13 10:47:53;;;;;;;19.53;11.40;;;6.20;29.60;;;;;;6300431;28;20219;-64
2022/03/13 10:50:56;;;;;;;16.93;10.27;;;6.30;31.80;;;;;;6325191;28;20202;-63
2022/03/13 10:53:57;;;;;;;17.03;11.63;;;6.60;30.90;;;;;;6297710;28;20203;-63
2022/03/13 10:57:09;;;;;;;17.73;12.13;;;6.60;29.20;;;;;;6266188;28;20208;-64
2022/03/13 11:00:16;;;;;;;15.77;11.17;;;6.60;30.00;;;;;;6300015;28;20186;-64
2022/03/13 11:03:17;;;;;;;15.83;11.23;;;6.70;30.40;;;;;;6293909;28;20229;-64
2022/03/13 11:06:19;;;;;;;16.23;10.90;;;6.80;30.10;;;;;;6299840;28;20555;-67
2022/03/13 11:09:20;;;;;;;13.90;10.50;;;6.80;29.40;;;;;;6312711;28;20193;-64
2022/03/13 11:12:22;;;;;;;14.33;10.60;;;6.80;31.20;;;;;;6303601;28;20207;-65
2022/03/13 11:15:27;;;;;;;13.43;10.63;;;6.90;29.50;;;;;;6297860;28;20208;-65
2022/03/13 11:18:32;;;;;;;14.30;11.07;;;7.00;28.70;;;;;;6295479;28;20304;-65
2022/03/13 11:21:33;;;;;;;16.17;10.97;;;7.00;29.50;;;;;;6318687;28;20213;-65
2022/03/13 11:24:36;;;;;;;11.70;9.87;;;7.50;28.60;;;;;;6315126;28;20323;-65
2022/03/13 11:27:39;;;;;;;16.20;10.87;;;7.70;28.80;;;;;;6259695;28;20207;-65
2022/03/13 11:30:40;;;;;;;17.57;12.00;;;7.80;27.80;;;;;;6309711;28;20196;-69
2022/03/13 11:33:45;;;;;;;14.70;10.50;;;8.00;28.40;;;;;;6272408;28;20189;-67
2022/03/13 11:36:49;;;;;;;12.63;11.03;;;8.00;28.80;;;;;;6298715;28;20245;-65
2022/03/13 11:40:00;;;;;;;13.70;10.60;;;8.30;28.50;;;;;;6303893;28;20202;-65
2022/03/13 11:43:12;;;;;;;14.90;10.73;;;8.40;26.60;;;;;;6298278;28;20251;-65
2022/03/13 11:46:40;;;;;;;15.93;11.27;;;8.40;26.40;;;;;;6294101;28;20201;-65
2022/03/13 11:49:41;;;;;;;14.40;11.40;;;8.30;26.00;;;;;;6265919;28;20196;-65
2022/03/13 11:52:44;;;;;;;15.13;11.13;;;8.60;26.50;;;;;;6277168;28;20189;-65
2022/03/13 11:55:57;;;;;;;14.83;11.13;;;8.80;26.40;;;;;;6281203;28;20220;-65
2022/03/13 11:59:18;;;;;;;14.43;10.77;;;9.30;25.80;;;;;;6296720;28;20222;-62
2022/03/13 12:02:42;;;;;;;16.07;11.43;;;9.30;26.70;;;;;;6298934;28;20174;-64
2022/03/13 12:05:50;;;;;;;14.57;10.97;;;9.80;25.50;;;;;;6297014;28;20190;-64
2022/03/13 12:09:16;;;;;;;14.13;10.50;;;9.90;25.50;;;;;;6316255;28;20193;-65
2022/03/13 12:12:20;;;;;;;14.07;10.97;;;10.00;24.70;;;;;;6311135;28;20193;-65
2022/03/13 12:15:24;;;;;;;14.23;10.80;;;10.10;24.50;;;;;;6306117;28;20197;-60
2022/03/13 12:18:27;;;;;;;15.10;10.27;;;10.40;24.40;;;;;;6291622;28;20461;-61
2022/03/13 12:21:30;;;;;;;16.17;11.47;;;10.70;25.00;;;;;;6304999;28;20205;-63
2022/03/13 12:24:33;;;;;;;16.03;11.53;;;11.10;22.80;;;;;;6297929;28;20282;-63
2022/03/13 12:27:34;;;;;;;14.27;11.13;;;11.50;23.30;;;;;;6309714;28;20283;-63
2022/03/13 12:30:35;;;;;;;15.67;12.43;;;11.90;22.80;;;;;;6300592;28;20195;-63
2022/03/13 12:33:38;;;;;;;15.13;11.23;;;13.20;22.70;;;;;;6270121;28;20193;-64
2022/03/13 12:36:40;;;;;;;11.80;10.40;;;15.60;18.80;;;;;;6302497;28;20260;-64
2022/03/13 12:39:49;;;;;;;12.60;10.60;;;18.00;18.10;;;;;;6321762;28;20194;-62
2022/03/13 12:42:55;;;;;;;14.40;12.03;;;20.20;16.20;;;;;;6317353;28;20192;-61
2022/03/13 12:45:57;;;;;;;14.63;11.67;;;23.70;13.30;;;;;;6274959;28;20199;-61
2022/03/13 12:49:00;;;;;;;12.47;11.17;;;25.40;12.20;;;;;;6256955;28;20223;-61
2022/03/13 12:52:01;;;;;;;11.67;10.47;;;26.40;10.90;;;;;;6327234;28;20200;-60
2022/03/13 12:55:04;;;;;;;12.00;10.70;;;26.70;10.60;;;;;;6308502;28;20219;-62
2022/03/13 12:58:05;;;;;;;11.33;9.90;;;27.00;11.00;;;;;;6278404;28;20227;-60
2022/03/13 13:01:21;;;;;;;11.37;10.27;;;27.90;10.50;;;;;;6274533;28;20192;-60
2022/03/13 13:04:23;;;;;;;10.87;9.77;;;28.70;9.90;;;;;;6334814;28;20237;-60
2022/03/13 13:07:40;;;;;;;10.17;9.30;;;28.30;10.40;;;;;;6272206;28;20201;-60
2022/03/13 13:10:42;;;;;;;9.93;8.93;;;29.60;9.50;;;;;;6329295;28;20189;-60
2022/03/13 13:13:55;;;;;;;12.33;11.03;;;28.10;10.30;;;;;;6285763;28;20189;-62
2022/03/13 13:16:57;;;;;;;10.70;9.70;;;27.50;9.80;;;;;;6324057;28;20227;-61
2022/03/13 13:20:01;;;;;;;13.00;9.93;;;27.80;10.50;;;;;;6291582;28;20196;-62
2022/03/13 13:23:09;;;;;;;10.67;9.63;;;27.40;10.20;;;;;;6306277;28;20189;-61
2022/03/13 13:26:10;;;;;;;10.90;8.93;;;28.20;10.30;;;;;;6297269;28;20268;-61
2022/03/13 13:29:11;;;;;;;10.77;9.70;;;29.20;9.40;;;;;;6244198;28;20202;-63
2022/03/13 13:32:19;;;;;;;11.00;10.00;;;29.50;9.10;;;;;;6222508;28;20202;-60
2022/03/13 13:35:31;;;;;;;10.80;9.67;;;29.70;9.20;;;;;;6252430;28;20171;-61
2022/03/13 13:38:32;;;;;;;11.20;9.97;;;30.10;9.00;;;;;;6251548;28;20210;-62
2022/03/13 13:41:34;;;;;;;10.67;9.77;;;29.50;9.00;;;;;;6222475;28;20195;-63
2022/03/13 13:44:35;;;;;;;10.20;9.20;;;30.40;8.90;;;;;;6268155;28;20195;-60
2022/03/13 13:47:36;;;;;;;10.77;9.77;;;30.90;8.80;;;;;;6240558;28;20205;-61
2022/03/13 13:50:37;;;;;;;9.83;8.97;;;29.50;9.10;;;;;;6238400;28;20193;-61
2022/03/13 13:53:48;;;;;;;10.47;9.47;;;30.70;8.80;;;;;;6241718;28;20252;-60
2022/03/13 13:57:00;;;;;;;10.27;9.30;;;31.50;8.50;;;;;;6235986;28;20223;-61
2022/03/13 14:00:01;;;;;;;9.63;8.47;;;32.20;7.60;;;;;;6281001;28;20202;-61
2022/03/13 14:03:01;;;;;;;9.50;8.70;;;30.90;8.70;;;;;;6228697;28;20202;-61
2022/03/13 14:06:02;;;;;;;9.73;8.73;;;30.80;8.60;;;;;;6239961;28;20201;-61
2022/03/13 14:09:05;;;;;;;11.30;8.83;;;31.00;8.70;;;;;;6256645;28;20199;-61
2022/03/13 14:12:07;;;;;;;11.10;9.07;;;31.20;8.70;;;;;;6272291;28;20239;-60
2022/03/13 14:15:09;;;;;;;11.00;9.50;;;30.40;8.80;;;;;;6260292;28;20170;-61
2022/03/13 14:18:10;;;;;;;10.40;9.40;;;29.60;9.70;;;;;;6255761;28;20239;-64
2022/03/13 14:21:11;;;;;;;11.83;9.77;;;29.70;9.10;;;;;;6247475;28;20194;-63
2022/03/13 14:24:12;;;;;;;9.57;8.37;;;29.90;9.40;;;;;;6271196;28;20197;-63
2022/03/13 14:27:13;;;;;;;9.67;8.57;;;30.50;9.30;;;;;;6270931;28;20189;-64
2022/03/13 14:30:14;;;;;;;11.53;8.93;;;30.20;9.30;;;;;;6280075;28;20197;-65
2022/03/13 14:33:16;;;;;;;11.20;9.27;;;30.20;9.20;;;;;;6259328;28;20193;-63
2022/03/13 14:36:19;;;;;;;9.93;9.03;;;29.80;9.20;;;;;;6316138;28;20197;-63
2022/03/13 14:39:19;;;;;;;11.23;9.20;;;29.20;9.60;;;;;;6270510;28;20196;-62
2022/03/13 14:42:20;;;;;;;10.77;9.50;;;29.70;9.30;;;;;;6312304;28;20189;-64
2022/03/13 14:45:22;;;;;;;10.97;9.63;;;30.10;9.30;;;;;;6284345;28;20252;-63
2022/03/13 14:48:22;;;;;;;9.73;8.83;;;29.20;9.60;;;;;;6287369;28;20227;-62
2022/03/13 14:51:23;;;;;;;11.17;8.90;;;28.30;9.80;;;;;;6256596;28;20201;-63
2022/03/13 14:54:25;;;;;;;9.60;8.70;;;28.30;10.30;;;;;;6296749;28;20205;-62
2022/03/13 14:57:26;;;;;;;9.60;8.70;;;29.40;9.70;;;;;;6300630;28;20221;-62
2022/03/13 15:00:27;;;;;;;9.30;8.40;;;29.20;9.70;;;;;;6317255;28;20173;-61
2022/03/13 15:03:28;;;;;;;10.70;9.70;;;29.70;9.10;;;;;;6318516;28;20194;-63
2022/03/13 15:06:30;;;;;;;9.83;8.73;;;29.10;9.40;;;;;;6296855;28;20295;-65
2022/03/13 15:09:31;;;;;;;9.97;8.97;;;29.10;9.70;;;;;;6316399;28;20201;-63
2022/03/13 15:12:32;;;;;;;10.27;8.77;;;28.00;9.60;;;;;;6299585;28;20198;-64
2022/03/13 15:15:33;;;;;;;9.17;8.27;;;28.70;9.50;;;;;;6273454;28;20200;-62
2022/03/13 15:18:34;;;;;;;10.20;9.20;;;28.00;9.60;;;;;;6289818;28;20223;-64
2022/03/13 15:21:35;;;;;;;10.00;9.03;;;28.00;9.80;;;;;;6300739;28;20242;-64